EDDC

Dresden Airport

Dresden, Germany
METAR EDDC 170520Z 27007KT 240V300 9999 -SNRA SCT007 BKN013 01/00 Q1014 R04/29//95 TEMPO BKN007
Observed Flight Rules
Dec-17 @ 05:20 UTC (48 minutes ago) Marginal Visual Flight Rules
Wind Visibility Clouds Conditions
270° at 7 knots 10,000+ meters
  • Scattered at 700' AGL
  • Broken at 1,300' AGL
  • Light Snow
  • Light Rain
Temperatures Readings
Current 1°C / 34°F
Dewpoint 0°C / 32°F
Humidity 93%
Altimeter 29.94" Hg
Pressure 1014 hPa
Elevation 226
METAR EDDC 170520Z 27007KT 240V300 9999 -SNRA SCT007 BKN013 01/00 Q1014 R04/29//95 TEMPO BKN007
Observed Flight Rules
Dec-17 @ 05:20 UTC
(48 minutes ago)
MVFR
Wind Visibility
270° at 7 knots 10,000+ meters
Clouds
  • Scattered at 700' AGL
  • Broken at 1,300' AGL
Conditions
  • Light Snow
  • Light Rain
Temperature Dewpoint
1°C / 34°F 0°C / 32°F
Humidity Altimeter Pressure
93% 29.94" Hg 1014 hPa